Time;durP1;ratioP1;P1;durP2;ratioP2;P2;SDS_P1;SDS_P2;PMS_P1;PMS_P2;Temp;Humidity;BMP_temperature;BMP_pressure;BME280_temperature;BME280_humidity;BME280_pressure;Samples;Min_cycle;Max_cycle;Signal;HPM_P1;HPM_P2
2023/10/21 00:27:02;;;;;;;3.33;1.47;;;;;;;16.24;83.63;97685.63;4870839;29;20263;-68
2023/10/21 00:34:20;;;;;;;3.77;1.00;;;;;;;16.34;83.07;97685.75;4782574;29;20638;-68
2023/10/21 00:52:22;;;;;;;1.73;0.80;;;;;;;16.48;82.20;97703.00;4918425;29;20313;-68
2023/10/21 01:06:33;;;;;;;4.13;0.50;;;;;;;16.35;86.16;97719.44;4918920;29;20563;-69
2023/10/21 02:05:54;;;;;;;1.00;0.20;;;;;;;15.69;98.35;97866.38;4987486;28;20277;-68
2023/10/21 02:13:26;;;;;;;1.33;0.30;;;;;;;15.75;94.83;97886.75;4857369;29;20221;-68
2023/10/21 03:04:08;;;;;;;1.80;0.43;;;;;;;16.15;87.62;98073.69;4791730;29;20215;-69
2023/10/21 03:26:18;;;;;;;;;;;;;;;;;;;;;
2023/10/21 04:11:15;;;;;;;2.53;0.40;;;;;;;16.21;84.02;98215.47;4919090;29;20260;-70
2023/10/21 04:24:58;;;;;;;0.77;0.40;;;;;;;16.22;82.05;98241.97;4897862;29;20216;-68
2023/10/21 04:28:23;;;;;;;1.53;0.40;;;;;;;16.33;81.59;98249.16;4981960;28;20212;-69
2023/10/21 05:11:43;;;;;;;4.60;0.63;;;;;;;16.19;82.18;98336.00;4942488;28;20207;-69
2023/10/21 05:48:23;;;;;;;3.07;0.40;;;;;;;15.80;86.85;98418.56;4917284;29;20207;-69
2023/10/21 06:09:15;;;;;;;0.20;0.10;;;;;;;15.98;84.33;98489.81;4836988;29;20243;-71
2023/10/21 06:16:11;;;;;;;2.63;0.65;;;;;;;16.12;84.10;98507.25;4926394;29;20982;-67
2023/10/21 06:19:09;;;;;;;2.03;0.43;;;;;;;16.02;83.34;98512.34;4943143;28;20241;-66
2023/10/21 06:21:45;;;;;;;2.20;0.50;;;;;;;15.98;83.98;98516.53;4946980;28;20904;-67
2023/10/21 06:24:29;;;;;;;0.67;0.30;;;;;;;15.98;82.43;98521.06;4964840;28;20211;-67
2023/10/21 06:39:38;;;;;;;1.30;0.30;;;;;;;15.86;76.41;98549.63;4965784;28;21055;-68
2023/10/21 06:50:39;;;;;;;1.50;0.30;;;;;;;15.82;77.15;98572.50;4849109;29;20356;-67
2023/10/21 06:53:12;;;;;;;0.63;0.20;;;;;;;15.85;76.66;98575.53;4896783;29;20213;-67
2023/10/21 06:56:17;;;;;;;0.20;0.20;;;;;;;15.83;76.50;98582.97;4844711;29;20217;-67
2023/10/21 06:58:53;;;;;;;1.07;0.20;;;;;;;15.82;77.34;98597.38;4903387;29;20630;-67
2023/10/21 07:05:16;;;;;;;0.77;0.30;;;;;;;15.83;77.37;98615.03;4958769;28;20250;-67
2023/10/21 07:07:46;;;;;;;1.60;0.30;;;;;;;15.78;76.79;98629.06;4963276;28;20257;-67
2023/10/21 07:10:17;;;;;;;3.03;0.60;;;;;;;15.82;77.43;98629.44;4963540;28;20234;-67
2023/10/21 07:16:10;;;;;;;0.57;0.20;;;;;;;15.91;77.05;98633.44;4993542;28;20200;-67
2023/10/21 07:19:18;;;;;;;1.27;0.37;;;;;;;15.92;76.94;98637.72;5021260;28;20542;-69
2023/10/21 07:22:36;;;;;;;2.83;0.40;;;;;;;15.99;76.57;98649.16;4940333;28;20289;-68
2023/10/21 07:25:10;;;;;;;4.03;0.60;;;;;;;16.06;75.26;98646.38;5025055;28;20220;-67
2023/10/21 07:27:50;;;;;;;1.63;0.77;;;;;;;16.08;75.43;98655.81;5007403;28;20279;-67
2023/10/21 07:30:23;;;;;;;2.23;0.90;;;;;;;16.21;73.48;98656.66;5023144;28;20537;-68
2023/10/21 07:36:27;;;;;;;1.37;0.53;;;;;;;16.14;74.60;98678.13;5018633;28;20219;-71
2023/10/21 07:39:26;;;;;;;3.43;0.50;;;;;;;16.19;73.76;98688.97;5020666;28;20243;-68
2023/10/21 07:42:02;;;;;;;1.97;0.63;;;;;;;16.21;72.92;98696.75;5024064;28;20229;-67
2023/10/21 07:44:35;;;;;;;2.00;0.67;;;;;;;16.18;73.00;98698.84;5022582;28;20730;-68
2023/10/21 07:47:33;;;;;;;0.70;0.40;;;;;;;16.26;72.14;98704.94;5006381;28;20222;-68
2023/10/21 08:16:29;;;;;;;3.10;0.60;;;;;;;16.83;70.45;98770.38;4965381;28;20218;-69
2023/10/21 08:30:14;;;;;;;1.13;0.33;;;;;;;17.12;68.11;98777.53;4942453;28;20630;-68
2023/10/21 08:33:16;;;;;;;4.10;0.77;;;;;;;17.24;67.92;98788.25;4900590;29;20232;-69
2023/10/21 08:36:22;;;;;;;1.83;0.60;;;;;;;17.31;66.53;98788.97;4904669;29;20263;-69
2023/10/21 08:43:37;;;;;;;3.37;1.03;;;;;;;17.75;65.61;98806.34;4900095;29;20228;-69
2023/10/21 08:46:33;;;;;;;3.40;1.20;;;;;;;17.94;64.71;98809.72;4886707;29;20220;-70
2023/10/21 08:49:51;;;;;;;3.00;0.50;;;;;;;18.12;62.79;98814.91;4845731;29;20227;-69
2023/10/21 08:52:32;;;;;;;2.53;0.70;;;;;;;18.39;59.99;98816.00;4900903;29;20237;-69
2023/10/21 08:58:29;;;;;;;3.03;0.53;;;;;;;19.74;56.93;98820.53;4928108;28;20216;-68
2023/10/21 09:00:57;;;;;;;1.90;0.50;;;;;;;20.12;54.60;98821.59;4939176;28;20280;-69
2023/10/21 09:03:49;;;;;;;5.33;0.97;;;;;;;21.14;51.11;98835.09;4968966;28;20204;-69
2023/10/21 09:06:21;;;;;;;2.50;0.70;;;;;;;21.45;48.66;98838.09;5025695;28;20208;-69
2023/10/21 09:08:52;;;;;;;3.70;1.33;;;;;;;21.17;49.04;98844.56;5026294;28;20222;-68
2023/10/21 09:11:21;;;;;;;1.87;0.60;;;;;;;20.77;50.68;98855.75;5027047;28;20228;-70
2023/10/21 09:13:52;;;;;;;3.77;0.53;;;;;;;20.19;52.13;98854.50;5024968;28;20201;-67
2023/10/21 09:16:23;;;;;;;3.00;0.70;;;;;;;19.77;53.35;98852.31;5024114;28;20197;-70
2023/10/21 09:18:58;;;;;;;3.60;0.77;;;;;;;19.60;52.86;98864.97;5022726;28;20201;-69
2023/10/21 09:21:37;;;;;;;2.40;0.60;;;;;;;20.95;51.94;98864.28;5024909;28;20615;-69
2023/10/21 09:24:13;;;;;;;0.80;0.40;;;;;;;22.09;47.36;98869.31;5023559;28;20239;-70
2023/10/21 09:26:45;;;;;;;2.90;0.40;;;;;;;22.06;47.62;98869.84;5023658;28;20334;-68
2023/10/21 09:29:18;;;;;;;5.07;0.60;;;;;;;22.00;47.51;98873.56;5022911;28;20217;-69
2023/10/21 09:32:26;;;;;;;3.07;0.70;;;;;;;21.48;49.23;98878.00;5020843;28;20283;-73
2023/10/21 09:35:16;;;;;;;2.63;0.60;;;;;;;20.90;49.15;98880.41;5023844;28;20208;-69
2023/10/21 09:37:45;;;;;;;3.50;0.47;;;;;;;20.53;50.33;98884.84;5022415;28;20251;-70
2023/10/21 09:40:13;;;;;;;3.20;0.77;;;;;;;20.17;51.31;98872.75;5023378;28;20702;-69
2023/10/21 09:42:42;;;;;;;3.43;0.67;;;;;;;19.99;52.12;98881.13;5023496;28;20228;-67
2023/10/21 09:45:14;;;;;;;4.07;0.70;;;;;;;19.76;52.06;98888.31;5024705;28;20207;-71
2023/10/21 09:47:43;;;;;;;3.00;0.70;;;;;;;19.64;52.30;98884.09;5024252;28;20213;-66
2023/10/21 09:50:13;;;;;;;4.73;0.70;;;;;;;19.42;51.49;98897.41;5024888;28;20215;-68
2023/10/21 09:52:45;;;;;;;2.57;0.70;;;;;;;19.30;51.95;98891.28;5024215;28;20268;-68
2023/10/21 09:55:15;;;;;;;3.43;0.50;;;;;;;19.07;52.50;98895.75;5024775;28;20800;-67
2023/10/21 10:15:58;;;;;;;3.67;0.87;;;;;;;18.96;52.91;98912.72;5023894;28;20215;-69
2023/10/21 10:18:29;;;;;;;3.90;0.50;;;;;;;18.91;52.56;98888.44;5022587;28;20208;-68
2023/10/21 10:21:04;;;;;;;2.87;0.70;;;;;;;19.23;52.53;98887.94;5024584;28;20256;-70
2023/10/21 10:23:36;;;;;;;5.63;1.60;;;;;;;19.95;50.27;98901.50;5024401;28;20209;-69
2023/10/21 10:26:04;;;;;;;3.40;0.67;;;;;;;19.68;51.66;98904.88;5024297;28;20736;-69
2023/10/21 10:28:32;;;;;;;3.13;0.70;;;;;;;19.62;51.37;98900.44;5022366;28;20288;-69
2023/10/21 10:31:01;;;;;;;3.77;0.70;;;;;;;19.51;51.10;98904.88;5024535;28;20209;-67
2023/10/21 10:33:31;;;;;;;2.73;0.80;;;;;;;19.52;52.52;98886.88;5023293;28;20290;-69
2023/10/21 10:36:06;;;;;;;2.63;0.50;;;;;;;19.54;52.48;98890.09;5025220;28;20197;-69
2023/10/21 10:38:44;;;;;;;4.27;0.50;;;;;;;19.35;53.37;98894.06;5025232;28;20236;-68
2023/10/21 10:41:15;;;;;;;2.57;0.77;;;;;;;19.18;53.76;98902.91;5025114;28;20292;-69
2023/10/21 10:43:46;;;;;;;2.60;0.73;;;;;;;19.17;53.72;98895.91;5022970;28;20682;-69
2023/10/21 10:46:17;;;;;;;2.93;0.70;;;;;;;19.13;53.90;98908.19;5023720;28;20622;-68
2023/10/21 10:48:47;;;;;;;5.90;1.20;;;;;;;19.22;53.04;98891.69;5022963;28;20196;-68
2023/10/21 10:51:15;;;;;;;3.47;0.93;;;;;;;19.24;51.54;98903.84;5024556;28;20228;-67
2023/10/21 10:53:46;;;;;;;3.63;0.97;;;;;;;19.28;50.80;98890.72;5024150;28;20217;-66
2023/10/21 10:56:18;;;;;;;3.77;0.93;;;;;;;19.27;50.75;98897.13;5024204;28;20500;-67
2023/10/21 10:58:48;;;;;;;5.30;0.80;;;;;;;19.25;51.82;98896.59;5022366;28;20216;-70
2023/10/21 11:01:20;;;;;;;3.63;0.70;;;;;;;19.30;50.92;98892.09;5023704;28;20204;-69
2023/10/21 11:03:57;;;;;;;4.33;0.63;;;;;;;19.37;50.87;98894.63;5022592;28;20296;-68
2023/10/21 11:06:36;;;;;;;2.50;0.60;;;;;;;19.28;51.02;98894.22;5020905;28;20670;-69
2023/10/21 11:09:16;;;;;;;3.40;0.83;;;;;;;19.15;51.22;98903.41;5021668;28;20250;-70
2023/10/21 11:11:46;;;;;;;3.83;0.73;;;;;;;19.30;51.00;98899.34;5020813;28;20544;-70
2023/10/21 11:14:41;;;;;;;3.47;0.57;;;;;;;19.60;49.99;98909.84;5022856;28;20207;-69
2023/10/21 11:17:17;;;;;;;4.40;1.00;;;;;;;19.75;50.36;98908.22;5021267;28;20200;-68
2023/10/21 11:19:47;;;;;;;4.60;0.80;;;;;;;19.98;49.30;98901.81;5023660;28;20232;-70
2023/10/21 11:22:25;;;;;;;2.87;0.80;;;;;;;20.18;49.11;98895.91;5025544;28;20302;-68
2023/10/21 11:25:08;;;;;;;3.30;0.50;;;;;;;20.42;47.16;98901.91;5019385;28;20215;-69
2023/10/21 11:27:38;;;;;;;2.90;0.80;;;;;;;20.48;47.52;98893.66;5020826;28;20200;-67
2023/10/21 11:30:13;;;;;;;6.50;0.57;;;;;;;20.50;47.56;98894.22;5020609;28;20207;-69
2023/10/21 11:32:54;;;;;;;2.83;0.80;;;;;;;20.34;47.27;98883.47;5021544;28;20224;-69
2023/10/21 12:32:25;;;;;;;4.87;1.97;;;;;;;23.32;37.97;98908.38;5021428;28;20309;-71
2023/10/21 12:46:07;;;;;;;2.08;0.60;;;;;;;22.79;39.62;98905.84;5021983;28;20744;-70
2023/10/21 12:49:31;;;;;;;3.45;0.85;;;;;;;22.24;41.06;98902.88;4963337;28;20273;-70
2023/10/21 13:24:04;;;;;;;3.33;0.77;;;;;;;19.98;45.72;98933.28;5026599;28;20343;-70
2023/10/21 13:27:23;;;;;;;2.60;0.77;;;;;;;20.00;45.09;98934.69;5026065;28;20667;-70
2023/10/21 15:14:28;;;;;;;2.57;0.87;;;;;;;18.92;46.13;98976.00;4940896;28;20223;-69
2023/10/21 15:17:21;;;;;;;3.53;0.80;;;;;;;18.84;46.38;98976.38;4950772;28;20281;-69
2023/10/21 15:19:55;;;;;;;6.13;0.87;;;;;;;18.74;46.42;98976.16;5024834;28;20240;-68
2023/10/21 15:22:23;;;;;;;2.97;0.80;;;;;;;18.77;46.08;98979.22;5026296;28;20260;-66
2023/10/21 15:24:51;;;;;;;4.13;1.00;;;;;;;18.86;45.83;98974.28;5024854;28;20232;-69
2023/10/21 15:27:20;;;;;;;3.23;0.73;;;;;;;18.78;45.72;98980.03;5023004;28;20208;-68
2023/10/21 15:29:54;;;;;;;3.27;0.70;;;;;;;18.77;46.34;98989.13;5021166;28;20681;-68
2023/10/21 15:32:28;;;;;;;3.20;0.80;;;;;;;18.65;46.34;98999.88;5024178;28;20244;-69
2023/10/21 15:35:01;;;;;;;3.33;1.10;;;;;;;18.61;46.47;99003.28;5023810;28;20231;-68
2023/10/21 15:37:31;;;;;;;4.00;1.00;;;;;;;18.52;47.94;98999.28;5023640;28;20334;-68
2023/10/21 15:40:08;;;;;;;4.50;1.10;;;;;;;18.50;47.29;98998.72;5022904;28;20213;-69
2023/10/21 15:42:51;;;;;;;3.80;1.00;;;;;;;18.45;48.71;99014.72;5022827;28;20306;-68
2023/10/21 15:45:24;;;;;;;4.63;0.90;;;;;;;18.39;48.61;99014.56;5022839;28;20738;-68
2023/10/21 15:47:59;;;;;;;3.37;1.03;;;;;;;18.33;49.79;99015.53;5023370;28;20223;-68
2023/10/21 15:50:27;;;;;;;2.57;0.93;;;;;;;18.36;48.49;99012.38;5023248;28;20555;-68
2023/10/21 15:52:55;;;;;;;5.93;1.27;;;;;;;18.32;48.67;99015.75;5023807;28;20501;-68
2023/10/21 15:55:25;;;;;;;3.90;1.00;;;;;;;18.28;49.28;99022.66;5024403;28;20220;-68
2023/10/21 15:57:54;;;;;;;5.23;1.10;;;;;;;18.32;48.86;99026.47;5023114;28;20205;-72
2023/10/21 16:00:23;;;;;;;3.60;1.27;;;;;;;18.22;49.50;99032.41;5022915;28;20211;-69
2023/10/21 16:02:52;;;;;;;2.43;1.00;;;;;;;18.14;49.63;99029.25;5021033;28;20204;-68
2023/10/21 16:05:20;;;;;;;4.90;1.40;;;;;;;18.09;50.63;99029.16;5024182;28;20204;-68
2023/10/21 16:07:49;;;;;;;6.60;1.33;;;;;;;18.06;49.78;99035.78;5022445;28;20663;-69
2023/10/21 16:10:20;;;;;;;7.80;1.37;;;;;;;17.98;50.42;99030.75;5023282;28;20219;-69
2023/10/21 16:12:48;;;;;;;4.60;1.20;;;;;;;17.90;50.66;99045.31;5023699;28;20233;-68
2023/10/21 16:15:19;;;;;;;8.03;2.43;;;;;;;17.91;50.61;99046.16;5024396;28;20201;-68
2023/10/21 16:17:51;;;;;;;17.17;6.30;;;;;;;17.91;50.20;99051.50;5025542;28;20242;-68
2023/10/21 16:20:19;;;;;;;21.97;11.33;;;;;;;17.91;49.76;99056.88;5028230;28;20209;-68
2023/10/21 16:22:48;;;;;;;23.47;11.53;;;;;;;17.86;49.84;99059.41;5028016;28;20213;-68
2023/10/21 16:26:04;;;;;;;16.63;8.57;;;;;;;17.77;50.95;99060.78;5024588;28;20215;-68
2023/10/21 16:28:32;;;;;;;13.63;5.53;;;;;;;17.68;51.32;99065.66;5016777;28;20295;-68
2023/10/21 16:34:36;;;;;;;13.33;4.67;;;;;;;17.63;54.86;99073.56;5025657;28;20658;-68
2023/10/21 16:37:07;;;;;;;11.60;5.17;;;;;;;17.65;54.30;99079.53;5025784;28;20223;-68
2023/10/21 16:39:35;;;;;;;9.57;3.97;;;;;;;17.64;55.28;99078.69;5026164;28;20247;-68
2023/10/21 16:42:04;;;;;;;4.13;1.83;;;;;;;17.66;53.66;99089.19;5024942;28;20256;-68
2023/10/21 16:44:32;;;;;;;7.77;2.50;;;;;;;17.62;52.36;99086.16;5024884;28;20225;-69
2023/10/21 16:47:00;;;;;;;5.83;1.83;;;;;;;17.59;53.52;99094.59;5026369;28;20292;-69
2023/10/21 16:49:31;;;;;;;7.13;2.00;;;;;;;17.56;51.59;99091.56;5028039;28;20220;-69
2023/10/21 16:52:01;;;;;;;4.83;1.20;;;;;;;17.50;52.06;99098.63;5027684;28;20215;-68
2023/10/21 16:54:32;;;;;;;3.73;1.53;;;;;;;17.45;52.68;99111.91;5027824;28;20239;-70
2023/10/21 16:57:01;;;;;;;6.20;1.60;;;;;;;17.43;52.73;99113.97;5027724;28;20211;-68
2023/10/21 16:59:29;;;;;;;6.60;2.37;;;;;;;17.36;53.94;99121.28;5027205;28;20225;-68
2023/10/21 17:01:58;;;;;;;6.47;4.10;;;;;;;17.28;52.87;99118.91;5027273;28;20240;-68
2023/10/21 17:04:26;;;;;;;8.93;4.30;;;;;;;17.24;52.98;99131.09;5023737;28;20212;-69
2023/10/21 17:06:55;;;;;;;8.40;4.23;;;;;;;17.16;53.33;99134.06;5025851;28;20592;-71
2023/10/21 17:09:25;;;;;;;11.90;3.80;;;;;;;17.12;54.73;99132.91;5025639;28;20253;-69
2023/10/21 17:11:54;;;;;;;6.77;2.97;;;;;;;17.08;54.67;99139.72;5023583;28;20289;-69
2023/10/21 17:14:23;;;;;;;8.77;2.80;;;;;;;17.04;55.65;99136.69;5024157;28;20694;-68
2023/10/21 17:16:51;;;;;;;6.60;2.17;;;;;;;17.06;54.76;99144.50;5023838;28;20205;-68
2023/10/21 17:19:21;;;;;;;7.37;2.17;;;;;;;17.09;53.85;99149.41;5022487;28;20555;-68
2023/10/21 17:21:49;;;;;;;6.90;2.33;;;;;;;17.03;54.38;99150.31;5022042;28;20209;-68
2023/10/21 17:24:18;;;;;;;6.67;3.03;;;;;;;17.01;54.91;99153.19;5026242;28;20296;-68
2023/10/21 17:26:47;;;;;;;10.50;3.30;;;;;;;16.98;54.79;99152.81;5024096;28;20258;-68
2023/10/21 17:29:18;;;;;;;4.97;1.93;;;;;;;16.98;54.92;99155.47;5025089;28;20229;-68
2023/10/21 17:31:57;;;;;;;5.70;2.03;;;;;;;16.95;54.76;99158.63;5023108;28;20266;-68
2023/10/21 17:34:34;;;;;;;8.00;1.97;;;;;;;16.89;54.86;99160.31;5025485;28;20227;-68
2023/10/21 17:37:03;;;;;;;7.33;2.50;;;;;;;16.85;55.07;99164.47;5025351;28;20220;-68
2023/10/21 17:39:30;;;;;;;9.87;2.80;;;;;;;16.84;56.26;99171.69;5025718;28;20255;-69
2023/10/21 17:42:01;;;;;;;10.30;2.90;;;;;;;16.83;56.44;99166.53;5023147;28;20228;-69
2023/10/21 17:44:29;;;;;;;7.03;3.47;;;;;;;16.81;56.12;99169.44;5021767;28;20290;-68
2023/10/21 17:47:03;;;;;;;10.30;3.83;;;;;;;16.78;56.75;99167.22;5021387;28;20213;-70
2023/10/21 17:49:32;;;;;;;11.03;5.17;;;;;;;16.75;57.77;99181.03;5021836;28;20200;-68
2023/10/21 17:52:02;;;;;;;14.50;6.50;;;;;;;16.70;57.59;99174.72;5020655;28;20216;-69
2023/10/21 20:49:50;;;;;;;4.90;2.00;;;;;;;14.95;62.75;99320.00;4955983;28;20221;-67
2023/10/21 20:56:24;;;;;;;9.33;2.00;;;;;;;14.94;63.09;99326.41;5014957;28;20200;-68
2023/10/21 20:59:43;;;;;;;5.57;2.17;;;;;;;14.91;63.80;99325.97;5030203;28;20998;-70
2023/10/21 21:16:23;;;;;;;9.03;3.20;;;;;;;14.89;63.87;99334.19;4903584;29;20219;-68
2023/10/21 21:19:00;;;;;;;8.23;3.00;;;;;;;14.72;64.88;99327.59;4935447;29;20208;-70
2023/10/21 21:22:14;;;;;;;7.57;2.77;;;;;;;14.63;65.02;99336.81;4921380;29;20295;-71
2023/10/21 21:24:54;;;;;;;8.43;2.50;;;;;;;14.53;65.38;99336.34;4933260;29;20231;-68
2023/10/21 21:31:40;;;;;;;6.53;2.20;;;;;;;14.58;65.38;99328.59;4885447;29;20278;-69
2023/10/21 21:50:24;;;;;;;5.03;1.77;;;;;;;14.26;65.89;99367.41;4809895;29;20262;-69
2023/10/21 21:56:11;;;;;;;4.07;1.90;;;;;;;14.37;65.84;99356.19;4987630;28;20586;-69
2023/10/21 22:09:42;;;;;;;6.23;1.70;;;;;;;14.31;65.20;99355.16;4901235;29;20217;-70
2023/10/21 22:24:16;;;;;;;6.87;1.67;;;;;;;14.13;66.61;99380.69;4923984;28;20234;-69
2023/10/21 22:27:27;;;;;;;4.87;1.80;;;;;;;14.12;66.78;99377.19;4894047;29;20209;-69
2023/10/21 22:30:29;;;;;;;4.83;1.90;;;;;;;14.11;66.84;99377.38;4890800;29;20288;-68
2023/10/21 22:37:31;;;;;;;6.90;1.80;;;;;;;14.15;66.65;99384.81;4909780;29;20209;-74
2023/10/21 22:40:50;;;;;;;14.33;2.70;;;;;;;14.06;66.79;99380.66;4909379;29;20267;-71
2023/10/21 22:50:39;;;;;;;5.80;1.70;;;;;;;13.86;68.02;99380.53;4839639;29;20230;-69
2023/10/21 23:04:12;;;;;;;7.00;3.60;;;;;;;13.73;68.92;99407.06;4877193;29;20226;-68
2023/10/21 23:17:33;;;;;;;6.80;2.07;;;;;;;13.54;69.48;99416.56;5014825;28;20718;-72
2023/10/21 23:20:07;;;;;;;7.27;2.40;;;;;;;13.54;69.99;99426.41;5029841;28;20285;-68
2023/10/21 23:30:41;;;;;;;6.03;2.30;;;;;;;13.56;69.20;99432.34;4912058;29;20274;-69
2023/10/21 23:36:58;;;;;;;9.37;2.53;;;;;;;13.66;68.98;99432.84;4909862;29;20386;-68
2023/10/21 23:39:56;;;;;;;8.40;3.03;;;;;;;13.66;68.62;99443.50;4923467;28;20249;-68
2023/10/21 23:42:48;;;;;;;5.73;2.47;;;;;;;13.65;68.51;99441.84;4949877;28;20390;-74
2023/10/21 23:45:29;;;;;;;4.27;2.07;;;;;;;13.65;68.89;99446.34;4946642;29;20237;-68
2023/10/21 23:48:28;;;;;;;6.67;2.30;;;;;;;13.68;68.31;99454.78;4948772;28;20677;-68
2023/10/21 23:51:04;;;;;;;5.50;1.80;;;;;;;13.60;68.53;99457.59;4949469;28;20717;-69
2023/10/21 23:54:20;;;;;;;6.47;1.87;;;;;;;13.54;69.18;99466.38;4989890;28;20288;-68
2023/10/21 23:58:18;;;;;;;3.87;1.97;;;;;;;13.59;68.33;99461.28;5021100;28;20215;-69
